Time;durP1;ratioP1;P1;durP2;ratioP2;P2;SDS_P1;SDS_P2;PMS_P1;PMS_P2;Temp;Humidity;BMP_temperature;BMP_pressure;BME280_temperature;BME280_humidity;BME280_pressure;Samples;Min_cycle;Max_cycle;Signal;HPM_P1;HPM_P2
2022/09/09 00:01:24;;;;;;;2.60;1.40;;;16.70;81.80;;;;;;6212660;23;20005;-67
2022/09/09 00:04:28;;;;;;;2.00;1.50;;;16.80;81.60;;;;;;6213737;23;20001;-66
2022/09/09 00:07:05;;;;;;;2.20;1.63;;;16.80;81.40;;;;;;6212429;23;20004;-66
2022/09/09 00:10:01;;;;;;;1.90;1.63;;;16.80;81.60;;;;;;6213758;23;20039;-67
2022/09/09 00:12:26;;;;;;;2.38;1.83;;;16.80;81.50;;;;;;6177562;23;20059;-67
2022/09/09 00:15:02;;;;;;;2.60;2.05;;;16.80;81.40;;;;;;6212908;23;20807;-68
2022/09/09 00:17:39;;;;;;;2.15;1.63;;;16.80;81.70;;;;;;6213147;23;20001;-68
2022/09/09 00:20:29;;;;;;;2.85;1.60;;;16.80;81.70;;;;;;6211320;23;20479;-66
2022/09/09 00:23:11;;;;;;;2.47;1.60;;;16.90;81.50;;;;;;6212068;23;20011;-67
2022/09/09 00:25:44;;;;;;;;;;;16.90;81.20;;;;;;6212260;23;20000;-68
2022/09/09 00:28:18;;;;;;;2.47;1.90;;;16.90;80.80;;;;;;6211677;23;19958;-67
2022/09/09 00:30:46;;;;;;;1.98;1.88;;;16.90;81.10;;;;;;6212027;23;20008;-66
2022/09/09 00:33:15;;;;;;;2.97;2.30;;;16.90;81.30;;;;;;6211253;23;20001;-66
2022/09/09 00:35:53;;;;;;;3.45;2.10;;;16.80;81.60;;;;;;6211457;23;20001;-67
2022/09/09 00:38:34;;;;;;;2.67;2.08;;;16.90;81.60;;;;;;6211112;23;20009;-67
2022/09/09 00:41:14;;;;;;;1.63;1.53;;;16.90;81.40;;;;;;6212335;23;20011;-68
2022/09/09 00:43:41;;;;;;;2.25;1.88;;;16.90;81.30;;;;;;6210223;23;20390;-68
2022/09/09 00:47:03;;;;;;;2.05;1.70;;;17.00;81.30;;;;;;6211662;23;20000;-67
2022/09/09 00:49:47;;;;;;;1.98;1.77;;;17.00;81.20;;;;;;6119225;23;20073;-67
2022/09/09 00:52:48;;;;;;;2.53;2.00;;;17.00;81.10;;;;;;6118945;23;20482;-68
2022/09/09 00:55:26;;;;;;;2.28;1.60;;;17.00;81.20;;;;;;6195406;23;20004;-68
2022/09/09 00:57:52;;;;;;;3.45;1.63;;;17.00;81.20;;;;;;6211370;23;20327;-68
2022/09/09 01:00:23;;;;;;;2.35;1.90;;;17.00;81.20;;;;;;6211311;23;20011;-65
2022/09/09 01:02:57;;;;;;;3.17;1.55;;;17.00;81.20;;;;;;6209089;23;20088;-68
2022/09/09 01:05:32;;;;;;;2.15;1.50;;;16.90;81.20;;;;;;6212246;23;20419;-68
2022/09/09 01:08:00;;;;;;;1.75;1.50;;;16.90;81.20;;;;;;6212009;23;20022;-68
2022/09/09 01:10:45;;;;;;;1.83;1.52;;;16.90;81.20;;;;;;6211895;23;20011;-68
2022/09/09 01:13:24;;;;;;;3.35;1.60;;;16.90;81.10;;;;;;6212115;23;20082;-69
2022/09/09 01:15:53;;;;;;;1.70;1.48;;;16.90;81.00;;;;;;6210381;23;20005;-67
2022/09/09 01:18:23;;;;;;;3.13;1.65;;;16.90;81.20;;;;;;6212118;23;20049;-66
2022/09/09 01:20:57;;;;;;;1.85;1.30;;;16.80;81.30;;;;;;6211771;23;20011;-66
2022/09/09 01:24:01;;;;;;;2.50;1.50;;;16.80;81.30;;;;;;6212178;23;20001;-68
2022/09/09 01:26:43;;;;;;;1.60;1.50;;;16.80;81.20;;;;;;6118828;23;20073;-67
2022/09/09 01:29:11;;;;;;;2.05;1.30;;;16.80;81.30;;;;;;6119604;23;20020;-67
2022/09/09 01:31:42;;;;;;;2.40;1.75;;;16.70;81.30;;;;;;6173828;23;20429;-67
2022/09/09 01:34:15;;;;;;;2.25;1.63;;;16.70;81.30;;;;;;6211006;23;20001;-68
2022/09/09 01:36:41;;;;;;;1.48;1.10;;;16.70;81.50;;;;;;6210449;23;20005;-67
2022/09/09 01:39:06;;;;;;;2.60;1.50;;;16.70;81.40;;;;;;6212117;23;20063;-67
2022/09/09 01:41:32;;;;;;;1.98;1.40;;;16.70;81.20;;;;;;6212768;23;20023;-66
2022/09/09 01:43:58;;;;;;;2.13;1.33;;;16.60;81.30;;;;;;6212148;23;19997;-66
2022/09/09 01:46:23;;;;;;;1.80;1.33;;;16.60;81.50;;;;;;6212282;23;20004;-66
2022/09/09 01:48:52;;;;;;;1.33;1.20;;;16.60;81.40;;;;;;6212273;23;20007;-68
2022/09/09 01:51:18;;;;;;;2.38;1.63;;;16.60;81.30;;;;;;6212209;23;20032;-67
2022/09/09 01:53:45;;;;;;;2.47;1.20;;;16.60;81.40;;;;;;6212637;23;20004;-68
2022/09/09 01:56:17;;;;;;;2.03;1.38;;;16.60;81.40;;;;;;6211973;23;20031;-68
2022/09/09 01:59:03;;;;;;;;;;;16.50;81.40;;;;;;6212783;23;19997;-67
2022/09/09 02:02:09;;;;;;;2.90;1.50;;;16.50;81.30;;;;;;6211993;23;19907;-66
2022/09/09 02:04:51;;;;;;;1.40;1.30;;;16.40;81.50;;;;;;6199751;23;20012;-67
2022/09/09 02:07:26;;;;;;;1.60;1.27;;;16.40;81.50;;;;;;6212066;23;20001;-67
2022/09/09 02:10:00;;;;;;;1.65;1.40;;;16.40;81.40;;;;;;6211913;23;20083;-66
2022/09/09 02:12:29;;;;;;;2.30;1.75;;;16.40;81.50;;;;;;6211936;23;20000;-64
2022/09/09 02:15:06;;;;;;;1.70;1.40;;;16.30;81.50;;;;;;6211618;23;20003;-66
2022/09/09 02:17:36;;;;;;;2.70;1.52;;;16.30;81.70;;;;;;6212338;23;19997;-66
2022/09/09 02:20:14;;;;;;;2.25;1.30;;;16.20;81.70;;;;;;6212292;23;20004;-67
2022/09/09 02:22:43;;;;;;;2.28;1.40;;;16.20;81.80;;;;;;6212010;23;19997;-67
2022/09/09 02:25:11;;;;;;;1.92;1.40;;;16.20;81.70;;;;;;6211909;23;20024;-67
2022/09/09 02:27:37;;;;;;;1.65;1.38;;;16.20;81.70;;;;;;6211540;23;20004;-65
2022/09/09 02:30:04;;;;;;;2.42;1.65;;;16.20;82.20;;;;;;6212100;23;20000;-66
2022/09/09 02:32:32;;;;;;;2.40;1.55;;;16.20;81.50;;;;;;6211624;23;20005;-67
2022/09/09 02:35:03;;;;;;;1.88;1.33;;;16.20;81.50;;;;;;6212122;23;20005;-67
2022/09/09 02:37:35;;;;;;;1.65;1.30;;;16.10;81.40;;;;;;6211471;23;20005;-65
2022/09/09 02:40:02;;;;;;;1.48;1.35;;;16.20;81.50;;;;;;6211858;23;20011;-67
2022/09/09 02:42:28;;;;;;;2.30;1.45;;;16.10;81.50;;;;;;6211442;23;20001;-68
2022/09/09 02:44:54;;;;;;;2.35;1.63;;;16.10;81.50;;;;;;6211962;23;20422;-67
2022/09/09 02:47:38;;;;;;;1.40;1.10;;;16.10;81.50;;;;;;6212052;23;20035;-68
2022/09/09 02:50:06;;;;;;;1.45;1.30;;;16.10;81.60;;;;;;6211664;23;20008;-67
2022/09/09 02:52:35;;;;;;;1.20;1.08;;;16.10;81.60;;;;;;6210133;23;20059;-67
2022/09/09 02:55:11;;;;;;;2.17;1.30;;;16.10;81.60;;;;;;6211401;23;20366;-67
2022/09/09 02:57:38;;;;;;;1.88;1.50;;;16.10;81.50;;;;;;6211054;23;20008;-67
2022/09/09 03:00:05;;;;;;;1.40;1.10;;;16.10;81.40;;;;;;6211849;23;20004;-69
2022/09/09 03:02:30;;;;;;;1.67;1.40;;;16.10;81.30;;;;;;6210911;23;20005;-68
2022/09/09 03:04:56;;;;;;;1.67;1.30;;;16.10;81.40;;;;;;6211147;23;20001;-67
2022/09/09 03:07:22;;;;;;;1.83;1.20;;;16.10;81.40;;;;;;6211277;23;20001;-67
2022/09/09 03:09:47;;;;;;;2.67;1.30;;;16.10;81.30;;;;;;6210876;23;20008;-66
2022/09/09 03:12:13;;;;;;;1.70;1.60;;;16.10;81.20;;;;;;6211369;23;20032;-67
2022/09/09 03:14:39;;;;;;;1.50;1.20;;;16.10;81.40;;;;;;6210945;23;20128;-68
2022/09/09 03:17:05;;;;;;;2.00;1.58;;;16.00;81.30;;;;;;6211225;23;20004;-68
2022/09/09 03:19:31;;;;;;;2.45;1.58;;;16.00;81.40;;;;;;6210955;23;20008;-68
2022/09/09 03:21:58;;;;;;;2.50;1.40;;;16.00;81.50;;;;;;6211119;23;20072;-68
2022/09/09 03:24:24;;;;;;;2.95;1.38;;;16.00;81.50;;;;;;6211189;23;20059;-68
2022/09/09 03:26:50;;;;;;;2.03;1.40;;;16.00;81.50;;;;;;6211108;23;20013;-68
2022/09/09 03:29:17;;;;;;;3.67;1.50;;;16.00;81.50;;;;;;6210917;23;20004;-65
2022/09/09 03:31:42;;;;;;;2.88;1.30;;;16.00;81.60;;;;;;6211107;23;20004;-64
2022/09/09 03:34:08;;;;;;;2.42;1.63;;;16.00;81.50;;;;;;6210938;23;20408;-65
2022/09/09 03:36:33;;;;;;;4.22;1.85;;;16.00;81.50;;;;;;6211671;23;20453;-66
2022/09/09 03:39:00;;;;;;;1.90;1.60;;;15.90;81.50;;;;;;6211111;23;20011;-66
2022/09/09 03:41:26;;;;;;;2.20;1.42;;;15.90;81.90;;;;;;6210821;23;20039;-67
2022/09/09 03:43:52;;;;;;;2.80;1.60;;;15.90;81.80;;;;;;6211445;23;19997;-66
2022/09/09 03:46:18;;;;;;;2.53;1.90;;;15.90;81.90;;;;;;6211044;23;20001;-66
2022/09/09 03:48:44;;;;;;;2.92;1.70;;;15.90;81.90;;;;;;6211430;23;19997;-67
2022/09/09 03:51:10;;;;;;;1.90;1.50;;;15.90;81.80;;;;;;6211100;23;20008;-67
2022/09/09 03:53:37;;;;;;;2.05;1.50;;;15.90;81.70;;;;;;6212984;23;20422;-67
2022/09/09 03:56:04;;;;;;;2.45;1.58;;;15.90;81.80;;;;;;6213383;23;20422;-66
2022/09/09 03:58:29;;;;;;;2.20;1.75;;;15.90;81.80;;;;;;6213424;23;20001;-64
2022/09/09 04:01:14;;;;;;;2.50;1.50;;;16.00;81.70;;;;;;6213196;23;20000;-66
2022/09/09 04:03:40;;;;;;;3.15;1.50;;;16.00;81.90;;;;;;6213690;23;20003;-65
2022/09/09 04:06:09;;;;;;;2.53;1.70;;;16.00;81.80;;;;;;6212482;23;20352;-67
2022/09/09 04:08:35;;;;;;;2.33;1.40;;;16.00;81.80;;;;;;6213221;23;20437;-67
2022/09/09 04:11:06;;;;;;;3.25;1.40;;;16.00;81.80;;;;;;6213317;23;20007;-67
2022/09/09 04:13:32;;;;;;;4.00;1.70;;;16.00;81.70;;;;;;6212957;23;20055;-67
2022/09/09 04:15:59;;;;;;;2.60;1.92;;;16.00;81.60;;;;;;6212613;23;20004;-65
2022/09/09 04:18:27;;;;;;;2.15;1.80;;;16.00;81.80;;;;;;6212512;23;20008;-66
2022/09/09 04:20:56;;;;;;;2.58;1.63;;;16.00;81.80;;;;;;6212624;23;20055;-69
2022/09/09 04:23:23;;;;;;;2.45;1.67;;;16.10;82.20;;;;;;6213377;23;20059;-66
2022/09/09 04:25:53;;;;;;;2.78;1.80;;;16.10;81.90;;;;;;6212601;23;20111;-66
2022/09/09 04:28:21;;;;;;;1.67;1.50;;;16.10;81.90;;;;;;6212533;23;20015;-65
2022/09/09 04:30:47;;;;;;;2.85;1.60;;;16.10;81.80;;;;;;6212613;23;20361;-66
2022/09/09 04:33:13;;;;;;;2.42;1.85;;;16.10;81.60;;;;;;6211456;23;20007;-66
2022/09/09 04:35:43;;;;;;;2.45;1.60;;;16.20;81.70;;;;;;6213597;23;20011;-65
2022/09/09 04:38:09;;;;;;;2.55;1.42;;;16.20;81.70;;;;;;6212737;23;20001;-65
2022/09/09 04:40:35;;;;;;;2.50;1.50;;;16.20;81.50;;;;;;6212671;23;20015;-66
2022/09/09 04:43:03;;;;;;;4.25;1.75;;;16.30;81.50;;;;;;6212876;23;19997;-68
2022/09/09 04:45:28;;;;;;;2.22;1.58;;;16.30;81.40;;;;;;6212228;23;19997;-68
2022/09/09 04:47:54;;;;;;;2.45;1.60;;;16.30;81.30;;;;;;6212464;23;19997;-68
2022/09/09 04:50:20;;;;;;;3.08;1.98;;;16.30;81.40;;;;;;6212243;23;20070;-67
2022/09/09 04:52:46;;;;;;;2.70;1.63;;;16.30;81.30;;;;;;6212654;23;20373;-67
2022/09/09 04:55:12;;;;;;;2.67;1.65;;;16.30;81.30;;;;;;6212481;23;20001;-68
2022/09/09 04:57:39;;;;;;;4.45;2.35;;;16.40;81.40;;;;;;6210552;23;20464;-65
2022/09/09 05:00:05;;;;;;;1.70;1.58;;;16.40;81.30;;;;;;6211934;23;20011;-66
2022/09/09 05:02:31;;;;;;;3.05;2.25;;;16.40;81.40;;;;;;6211933;23;20502;-66
2022/09/09 05:04:57;;;;;;;2.15;1.60;;;16.40;81.50;;;;;;6212049;23;20047;-66
2022/09/09 05:07:23;;;;;;;3.92;1.95;;;16.40;81.50;;;;;;6212288;23;19997;-67
2022/09/09 05:09:49;;;;;;;2.88;1.40;;;16.40;81.60;;;;;;6211819;23;20011;-66
2022/09/09 05:12:16;;;;;;;5.25;2.10;;;16.40;81.50;;;;;;6211092;23;20083;-66
2022/09/09 05:14:42;;;;;;;3.15;1.60;;;16.40;81.60;;;;;;6212103;23;20006;-66
2022/09/09 05:17:08;;;;;;;3.30;1.90;;;16.40;81.60;;;;;;6211849;23;20092;-67
2022/09/09 05:19:33;;;;;;;2.15;1.70;;;16.40;81.50;;;;;;6211859;23;20040;-68
2022/09/09 05:22:00;;;;;;;2.95;1.42;;;16.40;81.80;;;;;;6212730;23;20575;-65
2022/09/09 05:24:26;;;;;;;4.20;1.60;;;16.40;81.70;;;;;;6211689;23;20601;-66
2022/09/09 05:26:52;;;;;;;4.28;1.70;;;16.50;81.80;;;;;;6211573;23;20005;-65
2022/09/09 05:29:19;;;;;;;2.60;1.63;;;16.50;81.70;;;;;;6211933;23;20032;-65
2022/09/09 05:31:47;;;;;;;2.15;1.85;;;16.50;81.70;;;;;;6210889;23;20092;-66
2022/09/09 05:34:13;;;;;;;3.42;1.83;;;16.50;81.80;;;;;;6211774;23;20005;-66
2022/09/09 05:36:39;;;;;;;5.07;1.90;;;16.50;82.00;;;;;;6211569;23;20051;-67
2022/09/09 05:39:04;;;;;;;3.88;1.92;;;16.60;82.10;;;;;;6211720;23;20059;-65
2022/09/09 05:41:31;;;;;;;7.72;3.35;;;16.60;82.20;;;;;;6211771;23;20005;-66
2022/09/09 05:43:58;;;;;;;4.07;2.10;;;16.50;82.70;;;;;;6211689;23;20075;-66
2022/09/09 05:46:24;;;;;;;3.17;1.90;;;16.50;82.90;;;;;;6211832;23;20004;-67
2022/09/09 05:48:51;;;;;;;4.13;1.58;;;16.50;82.90;;;;;;6211606;23;20004;-67
2022/09/09 05:51:21;;;;;;;3.40;1.40;;;16.60;83.00;;;;;;6211807;23;20020;-65
2022/09/09 05:53:48;;;;;;;2.47;1.63;;;16.60;82.80;;;;;;6212238;23;20000;-65
2022/09/09 05:56:15;;;;;;;5.95;2.33;;;16.70;82.80;;;;;;6210458;23;19997;-66
2022/09/09 05:58:43;;;;;;;5.05;2.03;;;16.70;82.90;;;;;;6210996;23;20000;-66
2022/09/09 06:01:14;;;;;;;3.42;2.00;;;16.90;82.80;;;;;;6210542;23;20035;-65
2022/09/09 06:03:42;;;;;;;4.00;1.75;;;17.30;82.30;;;;;;6208927;23;20315;-65
2022/09/09 06:06:11;;;;;;;6.95;1.90;;;17.70;81.10;;;;;;6209774;23;19996;-66
2022/09/09 06:08:38;;;;;;;3.75;2.22;;;18.20;80.10;;;;;;6210968;23;19996;-67
2022/09/09 06:11:12;;;;;;;3.05;1.67;;;19.10;78.20;;;;;;6211182;23;20008;-67
2022/09/09 06:13:39;;;;;;;3.00;1.88;;;20.00;75.90;;;;;;6210781;23;20004;-67
2022/09/09 06:16:08;;;;;;;4.13;1.77;;;20.80;73.00;;;;;;6210897;23;20009;-66
2022/09/09 06:18:34;;;;;;;4.72;1.95;;;21.40;71.00;;;;;;6211123;23;20075;-65
2022/09/09 06:21:03;;;;;;;3.42;1.60;;;22.00;68.90;;;;;;6211430;23;20039;-68
2022/09/09 06:23:35;;;;;;;4.82;1.88;;;22.30;67.30;;;;;;6211419;23;20373;-66
2022/09/09 06:26:06;;;;;;;4.30;1.92;;;22.10;66.80;;;;;;6209776;23;19996;-65
2022/09/09 06:28:33;;;;;;;6.95;1.95;;;21.60;67.20;;;;;;6211648;23;20008;-66
2022/09/09 06:31:00;;;;;;;5.10;1.77;;;20.70;68.60;;;;;;6210985;23;20333;-68
2022/09/09 06:33:27;;;;;;;5.38;2.00;;;20.30;70.20;;;;;;6211563;23;20012;-67
2022/09/09 06:35:53;;;;;;;3.85;1.73;;;20.10;71.00;;;;;;6211233;23;20055;-68
2022/09/09 06:38:19;;;;;;;4.15;1.70;;;19.70;71.80;;;;;;6211538;23;20088;-67
2022/09/09 06:40:56;;;;;;;4.35;1.60;;;19.30;72.80;;;;;;6211126;23;20035;-67
2022/09/09 06:43:22;;;;;;;4.43;1.85;;;19.00;74.00;;;;;;6211384;23;20020;-68
2022/09/09 06:46:08;;;;;;;4.57;1.90;;;18.70;75.00;;;;;;6209559;23;20007;-67
2022/09/09 06:48:34;;;;;;;5.25;2.05;;;18.40;76.00;;;;;;6211058;23;20032;-67
2022/09/09 06:51:10;;;;;;;5.70;2.25;;;18.10;77.20;;;;;;6211206;23;20001;-68
2022/09/09 06:53:37;;;;;;;3.88;1.88;;;18.20;77.70;;;;;;6209581;23;20385;-68
2022/09/09 06:56:15;;;;;;;3.95;1.50;;;18.10;77.70;;;;;;6211023;23;20066;-66
2022/09/09 06:58:43;;;;;;;2.50;1.30;;;18.10;78.10;;;;;;6210861;23;20005;-65
2022/09/09 07:01:10;;;;;;;4.20;1.60;;;18.20;78.30;;;;;;6211176;23;20001;-66
2022/09/09 07:03:35;;;;;;;3.92;1.50;;;18.40;77.80;;;;;;6211158;23;20009;-67
2022/09/09 07:06:01;;;;;;;4.90;1.75;;;18.70;77.20;;;;;;6211082;23;20378;-66
2022/09/09 07:08:28;;;;;;;6.35;2.35;;;18.90;76.50;;;;;;6211059;23;20007;-66
2022/09/09 07:10:53;;;;;;;4.63;1.83;;;19.40;75.10;;;;;;6210771;23;20008;-66
2022/09/09 07:13:25;;;;;;;7.40;2.17;;;19.50;74.50;;;;;;6210177;23;20027;-67
2022/09/09 07:15:50;;;;;;;4.38;1.67;;;19.40;74.10;;;;;;6211041;23;20000;-66
2022/09/09 07:18:16;;;;;;;5.05;2.22;;;19.20;74.60;;;;;;6211004;23;20020;-66
2022/09/09 07:20:41;;;;;;;6.45;1.70;;;18.90;75.20;;;;;;6210170;23;20054;-66
2022/09/09 07:23:07;;;;;;;5.18;1.92;;;18.70;76.20;;;;;;6210146;23;20012;-67
2022/09/09 07:25:32;;;;;;;5.80;1.80;;;18.50;77.00;;;;;;6210655;23;20332;-67
2022/09/09 07:27:58;;;;;;;4.05;1.60;;;18.50;77.40;;;;;;6211334;23;20060;-66
2022/09/09 07:30:24;;;;;;;3.17;1.30;;;18.60;77.30;;;;;;6210589;23;20076;-66
2022/09/09 07:32:51;;;;;;;5.07;1.85;;;18.60;77.30;;;;;;6211531;23;20089;-67
2022/09/09 07:35:17;;;;;;;6.25;2.05;;;18.50;77.50;;;;;;6210508;23;20445;-67
2022/09/09 07:37:43;;;;;;;5.47;1.90;;;18.50;77.80;;;;;;6212086;23;20001;-67
2022/09/09 07:40:10;;;;;;;6.95;1.98;;;18.50;77.80;;;;;;6212040;23;20001;-67
2022/09/09 07:42:36;;;;;;;5.60;1.80;;;18.60;77.60;;;;;;6212111;23;20009;-66
2022/09/09 07:45:01;;;;;;;4.63;1.60;;;18.70;77.40;;;;;;6212023;23;20434;-65
2022/09/09 07:47:27;;;;;;;6.60;2.03;;;18.80;77.10;;;;;;6211602;23;20007;-67
2022/09/09 07:49:52;;;;;;;4.35;1.90;;;18.80;76.90;;;;;;6211854;23;20009;-67
2022/09/09 07:52:19;;;;;;;4.57;1.98;;;18.70;76.80;;;;;;6211941;23;20013;-66
2022/09/09 07:54:45;;;;;;;4.13;1.80;;;18.60;76.90;;;;;;6211273;23;20013;-67
2022/09/09 07:57:12;;;;;;;7.40;2.70;;;18.50;77.00;;;;;;6211797;23;20426;-65
2022/09/09 07:59:38;;;;;;;5.85;2.58;;;18.40;77.50;;;;;;6211681;23;20001;-67
2022/09/09 08:02:04;;;;;;;7.45;2.65;;;18.40;77.90;;;;;;6211291;23;20009;-66
2022/09/09 08:04:29;;;;;;;6.45;2.20;;;18.20;77.60;;;;;;6211473;23;19996;-67
2022/09/09 08:06:58;;;;;;;5.82;1.85;;;18.20;77.90;;;;;;6211675;23;20000;-65
2022/09/09 08:09:28;;;;;;;6.75;2.20;;;18.30;78.10;;;;;;6211888;23;20001;-68
2022/09/09 08:11:56;;;;;;;6.97;2.33;;;18.40;77.80;;;;;;6211960;23;20004;-66
2022/09/09 08:14:22;;;;;;;5.63;1.80;;;18.50;77.60;;;;;;6210200;23;20444;-66
2022/09/09 08:16:49;;;;;;;7.43;2.40;;;18.40;77.50;;;;;;6211812;23;20422;-66
2022/09/09 08:19:15;;;;;;;3.58;1.67;;;18.40;77.40;;;;;;6211578;23;20045;-65
2022/09/09 08:21:42;;;;;;;3.30;1.85;;;18.40;77.50;;;;;;6211490;23;20381;-65
2022/09/09 08:24:14;;;;;;;6.10;2.10;;;18.40;77.40;;;;;;6212148;23;20001;-66
2022/09/09 08:26:42;;;;;;;5.50;2.05;;;18.30;77.40;;;;;;6209978;23;20342;-65
2022/09/09 08:29:09;;;;;;;4.80;1.67;;;18.30;77.60;;;;;;6212103;23;20005;-66
2022/09/09 08:31:38;;;;;;;7.65;2.00;;;18.30;77.70;;;;;;6211709;23;20008;-66
2022/09/09 08:34:05;;;;;;;7.40;2.13;;;18.30;77.50;;;;;;6211739;23;20012;-65
2022/09/09 08:36:33;;;;;;;4.60;1.80;;;18.30;77.30;;;;;;6212091;23;20012;-66
2022/09/09 08:38:59;;;;;;;2.88;1.70;;;18.30;77.40;;;;;;6211766;23;20062;-66
2022/09/09 08:41:28;;;;;;;8.18;2.53;;;18.30;77.40;;;;;;6211933;23;20001;-66
2022/09/09 08:44:07;;;;;;;6.05;2.08;;;18.20;77.20;;;;;;6212097;23;19997;-66
2022/09/09 08:46:49;;;;;;;7.07;2.20;;;18.20;77.30;;;;;;6211707;23;20417;-66
2022/09/09 08:49:39;;;;;;;6.00;1.80;;;18.10;77.10;;;;;;6212047;23;20012;-66
2022/09/09 08:52:15;;;;;;;5.18;1.90;;;18.10;77.20;;;;;;6211621;23;20009;-66
2022/09/09 08:54:41;;;;;;;6.40;2.20;;;18.10;77.20;;;;;;6209537;23;20008;-65
2022/09/09 08:57:13;;;;;;;3.70;1.48;;;18.20;77.30;;;;;;6211364;23;20012;-65
2022/09/09 08:59:39;;;;;;;3.17;1.40;;;18.20;77.20;;;;;;6210989;23;20005;-66
2022/09/09 09:02:07;;;;;;;7.25;2.10;;;18.30;77.00;;;;;;6211747;23;20140;-66
2022/09/09 09:04:46;;;;;;;6.43;2.00;;;18.40;76.80;;;;;;6211716;23;20000;-67
2022/09/09 09:07:28;;;;;;;6.85;2.15;;;18.40;76.80;;;;;;6211618;23;20008;-67
2022/09/09 09:10:03;;;;;;;4.40;1.60;;;18.40;76.80;;;;;;6211822;23;20011;-67
2022/09/09 09:12:35;;;;;;;4.53;1.58;;;18.40;76.70;;;;;;6212052;23;20008;-67
2022/09/09 09:15:00;;;;;;;6.30;1.80;;;18.50;76.50;;;;;;6212701;23;20012;-67
2022/09/09 09:17:31;;;;;;;8.30;1.73;;;18.50;75.90;;;;;;6211840;23;20433;-66
2022/09/09 09:19:59;;;;;;;4.90;1.50;;;18.50;75.50;;;;;;6211880;23;20496;-66
2022/09/09 09:22:51;;;;;;;5.72;1.48;;;18.60;75.20;;;;;;6211965;23;20004;-66
2022/09/09 09:25:22;;;;;;;8.45;1.83;;;18.70;74.70;;;;;;6212227;23;20000;-66
2022/09/09 09:28:05;;;;;;;5.60;1.50;;;18.70;74.30;;;;;;6210032;23;20008;-66
2022/09/09 09:30:54;;;;;;;6.63;1.75;;;18.60;74.20;;;;;;6211359;23;20008;-66
2022/09/09 09:33:40;;;;;;;6.28;1.67;;;18.60;73.60;;;;;;6211441;23;20000;-66
2022/09/09 09:36:09;;;;;;;3.05;1.15;;;18.50;73.70;;;;;;6196486;23;20089;-66
2022/09/09 09:38:36;;;;;;;5.60;1.45;;;18.60;73.80;;;;;;6209987;23;20000;-66
2022/09/09 09:41:02;;;;;;;3.83;1.40;;;18.60;73.90;;;;;;6211629;23;20008;-66
2022/09/09 09:43:29;;;;;;;3.40;1.10;;;18.60;73.90;;;;;;6211760;23;20354;-66
2022/09/09 09:45:55;;;;;;;5.15;1.40;;;18.70;74.00;;;;;;6211575;23;20007;-66
2022/09/09 09:48:21;;;;;;;5.82;1.35;;;18.80;73.90;;;;;;6211457;23;20001;-66
2022/09/09 09:50:50;;;;;;;5.28;1.70;;;18.80;73.70;;;;;;6209935;23;20001;-66
2022/09/09 09:53:25;;;;;;;7.03;1.60;;;18.80;73.40;;;;;;6211322;23;20015;-66
2022/09/09 09:56:03;;;;;;;5.85;1.83;;;18.90;73.30;;;;;;6211683;23;20004;-66
2022/09/09 09:58:45;;;;;;;7.03;1.88;;;19.00;73.10;;;;;;6211581;23;20039;-66
2022/09/09 10:01:24;;;;;;;5.53;1.88;;;19.10;72.60;;;;;;6209643;23;20001;-66
2022/09/09 10:03:52;;;;;;;5.32;1.40;;;19.20;71.90;;;;;;6211535;23;20024;-66
2022/09/09 10:06:28;;;;;;;3.65;1.48;;;19.20;71.80;;;;;;6210812;23;20001;-66
2022/09/09 10:08:54;;;;;;;5.72;1.48;;;19.30;71.90;;;;;;6209296;23;19996;-66
2022/09/09 10:11:30;;;;;;;3.70;1.40;;;19.30;71.90;;;;;;6211386;23;19996;-66
2022/09/09 10:14:17;;;;;;;7.18;1.80;;;19.20;71.70;;;;;;6210872;23;20012;-66
2022/09/09 10:17:13;;;;;;;4.25;1.52;;;19.20;71.60;;;;;;6211268;23;20126;-66
2022/09/09 10:19:50;;;;;;;3.05;1.30;;;19.20;71.70;;;;;;6211288;23;20341;-66
2022/09/09 10:22:34;;;;;;;6.50;1.80;;;19.10;71.70;;;;;;6211392;23;19996;-66
2022/09/09 10:25:24;;;;;;;5.85;2.00;;;19.00;71.90;;;;;;6210807;23;20057;-66
2022/09/09 10:28:15;;;;;;;4.00;1.55;;;18.90;71.90;;;;;;6211001;23;20505;-66
2022/09/09 10:31:15;;;;;;;5.20;1.60;;;18.90;72.10;;;;;;6210655;23;20105;-66
2022/09/09 10:33:51;;;;;;;3.88;1.50;;;18.90;72.10;;;;;;6209725;23;20005;-66
2022/09/09 10:36:26;;;;;;;3.17;1.30;;;18.90;72.20;;;;;;6210829;23;20008;-66
2022/09/09 10:39:05;;;;;;;5.95;1.83;;;19.00;72.30;;;;;;6210687;23;20060;-66
2022/09/09 10:41:39;;;;;;;2.72;1.17;;;19.10;71.90;;;;;;6211484;23;20000;-66
2022/09/09 10:44:23;;;;;;;5.95;1.30;;;19.10;71.80;;;;;;6211193;23;20008;-66
2022/09/09 10:47:05;;;;;;;5.90;1.45;;;19.20;71.70;;;;;;6209707;23;20512;-66
2022/09/09 10:49:40;;;;;;;4.28;1.40;;;19.20;71.60;;;;;;6211355;23;20556;-66
2022/09/09 10:52:32;;;;;;;6.65;1.30;;;19.20;71.60;;;;;;6209846;23;20084;-66
2022/09/09 10:55:10;;;;;;;3.72;1.10;;;19.20;71.60;;;;;;6211500;23;20004;-66
2022/09/09 10:57:44;;;;;;;6.47;1.67;;;19.10;71.70;;;;;;6210942;23;20345;-66
2022/09/09 11:00:22;;;;;;;7.03;2.20;;;19.00;72.00;;;;;;6211005;23;20075;-65
2022/09/09 11:03:00;;;;;;;4.90;1.60;;;19.00;71.80;;;;;;6209793;23;19996;-65
2022/09/09 11:05:42;;;;;;;7.75;2.13;;;19.00;72.00;;;;;;6208400;23;20031;-66
2022/09/09 11:08:22;;;;;;;5.53;1.48;;;19.10;71.90;;;;;;6211308;23;20637;-66
2022/09/09 11:11:00;;;;;;;6.40;1.38;;;19.10;72.00;;;;;;6211160;23;20007;-65
2022/09/09 11:13:55;;;;;;;3.63;1.40;;;19.10;72.10;;;;;;6211210;23;20036;-65
2022/09/09 11:16:33;;;;;;;4.22;1.40;;;19.20;72.00;;;;;;6211227;23;20001;-66
2022/09/09 11:19:11;;;;;;;8.10;2.10;;;19.30;72.10;;;;;;6211369;23;20488;-66
2022/09/09 11:21:43;;;;;;;5.05;1.90;;;19.30;71.90;;;;;;6211241;23;20187;-66
2022/09/09 11:24:17;;;;;;;5.20;1.85;;;19.20;71.90;;;;;;6211015;23;20031;-66
2022/09/09 11:26:58;;;;;;;5.90;1.70;;;19.00;72.80;;;;;;6211654;23;20065;-66
2022/09/09 11:29:36;;;;;;;5.35;1.63;;;18.90;74.10;;;;;;6211633;23;20080;-66
2022/09/09 11:32:29;;;;;;;6.07;2.30;;;19.00;74.60;;;;;;6210650;23;20000;-66
2022/09/09 11:35:25;;;;;;;3.60;1.27;;;19.00;75.00;;;;;;6210956;23;20054;-66
2022/09/09 11:38:01;;;;;;;6.53;1.67;;;19.00;75.10;;;;;;6211281;23;20005;-66
2022/09/09 11:40:28;;;;;;;6.00;1.63;;;19.20;75.10;;;;;;6210966;23;20047;-66
2022/09/09 11:43:14;;;;;;;6.05;1.55;;;19.20;75.20;;;;;;6210881;23;20084;-66
2022/09/09 11:45:41;;;;;;;5.60;1.75;;;19.10;75.30;;;;;;6210910;23;20001;-66
2022/09/09 11:48:29;;;;;;;4.05;1.35;;;19.10;75.50;;;;;;6210922;23;20009;-66
2022/09/09 11:51:20;;;;;;;4.97;1.75;;;19.00;75.00;;;;;;6211244;23;20334;-66
2022/09/09 11:53:52;;;;;;;5.37;1.60;;;19.00;75.40;;;;;;6210899;23;20579;-65
2022/09/09 11:56:31;;;;;;;4.07;1.30;;;19.10;75.60;;;;;;6211079;23;20076;-66
2022/09/09 11:59:27;;;;;;;4.80;1.55;;;19.20;75.50;;;;;;6211023;23;20425;-66
2022/09/09 12:01:56;;;;;;;4.82;1.65;;;19.20;75.30;;;;;;6210214;23;20059;-66
2022/09/09 12:04:24;;;;;;;2.83;1.50;;;19.10;75.50;;;;;;6209373;23;20001;-66
2022/09/09 12:07:00;;;;;;;4.28;1.42;;;19.10;75.80;;;;;;6210873;23;19997;-66
2022/09/09 12:09:48;;;;;;;4.90;1.95;;;19.00;76.40;;;;;;6210541;23;20614;-66
2022/09/09 12:12:14;;;;;;;3.70;1.40;;;18.90;76.40;;;;;;6211094;23;20005;-66
2022/09/09 12:14:43;;;;;;;3.92;1.50;;;18.90;76.80;;;;;;6211984;23;20368;-66
2022/09/09 12:17:14;;;;;;;5.13;1.70;;;19.00;77.20;;;;;;6211199;23;20029;-66
2022/09/09 12:19:40;;;;;;;3.58;1.60;;;19.00;77.30;;;;;;6211473;23;20032;-66
2022/09/09 12:22:54;;;;;;;2.95;1.45;;;19.00;77.30;;;;;;6211814;23;20005;-66
2022/09/09 12:25:41;;;;;;;3.63;1.48;;;19.10;77.20;;;;;;6168005;23;20007;-66
2022/09/09 12:28:18;;;;;;;4.00;1.35;;;19.00;76.90;;;;;;6211261;23;20008;-66
2022/09/09 12:31:02;;;;;;;4.78;1.77;;;18.90;76.80;;;;;;6211493;23;20000;-66
2022/09/09 12:33:35;;;;;;;3.33;1.52;;;18.90;77.00;;;;;;6211691;23;20004;-66
2022/09/09 12:36:04;;;;;;;3.33;1.13;;;18.80;77.00;;;;;;6211376;23;20457;-66
2022/09/09 12:38:39;;;;;;;3.97;1.58;;;18.90;77.00;;;;;;6211675;23;20015;-66
2022/09/09 12:41:04;;;;;;;4.25;1.42;;;19.00;76.80;;;;;;6211437;23;20001;-66
2022/09/09 12:43:30;;;;;;;3.00;1.40;;;19.10;76.50;;;;;;6211357;23;19997;-66
2022/09/09 12:46:00;;;;;;;2.90;1.10;;;19.20;76.40;;;;;;6211816;23;20003;-66
2022/09/09 12:48:38;;;;;;;2.85;1.40;;;19.30;76.10;;;;;;6211498;23;20381;-65
2022/09/09 12:51:17;;;;;;;4.13;1.63;;;19.50;75.80;;;;;;6211993;23;20007;-66
2022/09/09 12:53:45;;;;;;;5.82;2.05;;;19.50;75.40;;;;;;6211778;23;20005;-66
2022/09/09 12:56:20;;;;;;;4.63;1.73;;;19.50;75.20;;;;;;6211685;23;20001;-66
2022/09/09 12:58:49;;;;;;;4.97;1.88;;;19.40;75.00;;;;;;6211247;23;20083;-66
2022/09/09 13:01:24;;;;;;;2.80;1.30;;;19.30;75.00;;;;;;6212025;23;20004;-66
2022/09/09 13:03:49;;;;;;;2.42;1.20;;;19.40;75.20;;;;;;6210109;23;20001;-66
2022/09/09 13:06:29;;;;;;;2.47;1.10;;;19.30;75.10;;;;;;6210520;23;20132;-66
2022/09/09 13:08:59;;;;;;;3.70;1.48;;;19.40;75.30;;;;;;6209799;23;20380;-66
2022/09/09 13:11:56;;;;;;;4.70;1.80;;;19.30;75.10;;;;;;6211371;23;20001;-65
2022/09/09 13:14:37;;;;;;;2.80;1.30;;;19.20;75.10;;;;;;6209985;23;20827;-65